Time;durP1;ratioP1;P1;durP2;ratioP2;P2;SDS_P1;SDS_P2;PMS_P1;PMS_P2;Temp;Humidity;BMP_temperature;BMP_pressure;BME280_temperature;BME280_humidity;BME280_pressure;Samples;Min_cycle;Max_cycle;Signal;HPM_P1;HPM_P2
2021/12/06 00:02:08;;;;;;;29.20;19.45;;;2.40;99.90;;;;;;4978863;28;20050;-77
2021/12/06 00:04:36;;;;;;;30.48;17.45;;;2.30;99.90;;;;;;4995854;28;20085;-77
2021/12/06 00:07:07;;;;;;;31.88;19.83;;;2.30;99.90;;;;;;4995362;28;20058;-77
2021/12/06 00:09:32;;;;;;;30.88;19.80;;;2.30;99.90;;;;;;4994266;28;20042;-77
2021/12/06 00:12:01;;;;;;;29.25;19.98;;;2.30;99.90;;;;;;5008398;28;20050;-77
2021/12/06 00:14:30;;;;;;;32.40;20.15;;;2.30;99.90;;;;;;4996601;28;20520;-77
2021/12/06 00:16:58;;;;;;;34.70;21.20;;;2.30;99.90;;;;;;4994797;28;20398;-77
2021/12/06 00:19:24;;;;;;;32.53;19.48;;;2.30;99.90;;;;;;4995229;28;20076;-77
2021/12/06 00:21:51;;;;;;;32.20;20.88;;;2.30;99.90;;;;;;4995361;28;20177;-77
2021/12/06 00:24:17;;;;;;;34.33;21.33;;;2.30;99.90;;;;;;4994433;28;20053;-78
2021/12/06 00:26:43;;;;;;;36.42;21.42;;;2.30;99.90;;;;;;5008007;28;20037;-77
2021/12/06 00:29:09;;;;;;;35.28;22.58;;;2.50;99.90;;;;;;5013834;28;20058;-77
2021/12/06 00:31:36;;;;;;;36.33;22.08;;;2.30;99.90;;;;;;5014449;28;20050;-77
2021/12/06 00:34:07;;;;;;;30.10;20.13;;;2.50;99.90;;;;;;5014712;28;20050;-78
2021/12/06 00:36:34;;;;;;;34.90;23.23;;;2.30;99.90;;;;;;5013786;28;20046;-77
2021/12/06 00:39:04;;;;;;;40.25;25.10;;;2.30;99.90;;;;;;5014488;28;20139;-78
2021/12/06 00:41:30;;;;;;;36.40;23.80;;;2.30;99.90;;;;;;4988114;28;20081;-77
2021/12/06 00:43:56;;;;;;;34.42;22.77;;;2.50;99.90;;;;;;4994900;28;20074;-77
2021/12/06 00:46:22;;;;;;;36.15;22.38;;;2.30;99.90;;;;;;4994845;28;20485;-77
2021/12/06 00:48:48;;;;;;;33.08;22.85;;;2.30;99.90;;;;;;4978597;28;20133;-78
2021/12/06 00:51:15;;;;;;;39.80;24.48;;;2.30;99.90;;;;;;4993864;28;20052;-77
2021/12/06 00:53:42;;;;;;;37.83;25.27;;;2.30;99.90;;;;;;4994998;28;20448;-77
2021/12/06 00:56:08;;;;;;;39.15;24.05;;;2.30;99.90;;;;;;4995627;28;20034;-79
2021/12/06 00:58:34;;;;;;;41.38;25.08;;;2.40;99.90;;;;;;4993790;28;20058;-78
2021/12/06 01:01:00;;;;;;;41.40;25.48;;;2.30;99.90;;;;;;4978260;28;20050;-77
2021/12/06 01:03:29;;;;;;;41.63;25.30;;;2.30;99.90;;;;;;4994828;28;20078;-77
2021/12/06 01:05:55;;;;;;;41.63;25.15;;;2.30;99.90;;;;;;4993502;28;20113;-77
2021/12/06 01:08:21;;;;;;;41.25;25.77;;;2.30;99.90;;;;;;4994438;28;20054;-77
2021/12/06 01:10:48;;;;;;;40.10;24.15;;;2.30;99.90;;;;;;4998239;28;20034;-77
2021/12/06 01:13:15;;;;;;;45.92;26.23;;;2.30;99.90;;;;;;5004246;28;20086;-77
2021/12/06 01:15:41;;;;;;;44.70;25.33;;;2.30;99.90;;;;;;4994168;28;20049;-77
2021/12/06 01:18:10;;;;;;;44.10;25.50;;;2.30;99.90;;;;;;4995321;28;20085;-77
2021/12/06 01:23:27;;;;;;;41.00;24.98;;;2.30;99.90;;;;;;4994279;28;20057;-77
2021/12/06 01:39:08;;;;;;;42.25;25.25;;;2.30;99.90;;;;;;5009445;28;20054;-78
2021/12/06 01:39:33;;;;;;;48.88;27.02;;;2.30;99.90;;;;;;5013731;28;20053;-77
2021/12/06 01:42:02;;;;;;;44.55;26.15;;;2.30;99.90;;;;;;4995574;28;20049;-77
2021/12/06 01:44:31;;;;;;;54.67;28.15;;;2.50;99.90;;;;;;4993779;28;20148;-77
2021/12/06 01:47:01;;;;;;;47.30;27.25;;;2.80;99.90;;;;;;4993082;28;20185;-77
2021/12/06 01:49:31;;;;;;;44.97;27.65;;;2.30;99.90;;;;;;4993956;28;20054;-77
2021/12/06 01:52:00;;;;;;;51.95;28.58;;;2.40;99.90;;;;;;4993555;28;20050;-77
2021/12/06 01:54:26;;;;;;;54.58;29.42;;;2.30;99.90;;;;;;4976559;28;20042;-77
2021/12/06 01:56:53;;;;;;;50.17;28.58;;;2.30;99.90;;;;;;4994593;28;20054;-77
2021/12/06 01:59:21;;;;;;;55.17;30.05;;;2.30;99.90;;;;;;4994772;28;20452;-77
2021/12/06 02:01:47;;;;;;;50.30;28.58;;;2.60;99.90;;;;;;4992876;28;20129;-78
2021/12/06 02:04:13;;;;;;;57.72;31.10;;;2.40;99.90;;;;;;4993431;28;20042;-77
2021/12/06 02:06:40;;;;;;;51.50;29.88;;;2.30;99.90;;;;;;4993625;28;20053;-77
2021/12/06 02:09:10;;;;;;;52.92;29.50;;;2.30;99.90;;;;;;4992730;28;20042;-78
2021/12/06 02:11:38;;;;;;;60.17;31.95;;;2.30;99.90;;;;;;5001693;28;20041;-77
2021/12/06 02:14:21;;;;;;;49.55;28.73;;;2.30;99.90;;;;;;5012553;28;20520;-78
2021/12/06 02:17:25;;;;;;;50.92;29.13;;;2.40;99.90;;;;;;5012375;28;20404;-77
2021/12/06 02:19:48;;;;;;;54.25;29.17;;;2.40;99.90;;;;;;5009890;28;20053;-77
2021/12/06 02:22:23;;;;;;;57.78;30.65;;;2.30;99.90;;;;;;5011944;28;20081;-77
2021/12/06 02:24:52;;;;;;;51.42;29.17;;;2.30;99.90;;;;;;4996329;28;20057;-77
2021/12/06 02:27:19;;;;;;;55.55;31.13;;;2.40;99.90;;;;;;4994546;28;20056;-77
2021/12/06 02:29:47;;;;;;;51.03;28.33;;;2.30;99.90;;;;;;4995707;28;20038;-77
2021/12/06 02:32:15;;;;;;;60.60;30.10;;;2.30;99.90;;;;;;5006462;28;20056;-77
2021/12/06 02:34:45;;;;;;;54.80;28.83;;;2.30;99.90;;;;;;5011983;28;20112;-77
2021/12/06 02:37:13;;;;;;;54.92;29.30;;;2.50;99.90;;;;;;5012144;28;20042;-77
2021/12/06 02:39:39;;;;;;;58.72;30.73;;;2.30;99.90;;;;;;5012889;28;20053;-77
2021/12/06 02:42:08;;;;;;;51.72;29.17;;;2.30;99.90;;;;;;4997894;28;20042;-77
2021/12/06 02:44:34;;;;;;;59.47;30.30;;;2.30;99.90;;;;;;4991985;28;20129;-77
2021/12/06 02:47:00;;;;;;;57.33;30.55;;;2.30;99.90;;;;;;4993123;28;20125;-77
2021/12/06 02:49:26;;;;;;;64.47;31.15;;;2.40;99.90;;;;;;4992887;28;20109;-77
2021/12/06 02:51:52;;;;;;;59.08;30.73;;;2.40;99.90;;;;;;4991931;28;20050;-77
2021/12/06 02:54:21;;;;;;;54.50;29.88;;;2.40;99.90;;;;;;4999046;28;20081;-77
2021/12/06 02:59:19;;;;;;;62.47;28.90;;;2.40;99.90;;;;;;5012252;28;20493;-77
2021/12/06 03:01:54;;;;;;;54.15;27.45;;;2.60;99.90;;;;;;5012615;28;20050;-77
2021/12/06 03:04:20;;;;;;;57.78;29.02;;;2.40;99.90;;;;;;5012096;28;20125;-77
2021/12/06 03:06:47;;;;;;;59.60;30.00;;;2.40;99.90;;;;;;5012378;28;20509;-77
2021/12/06 03:09:17;;;;;;;55.35;27.95;;;2.40;99.90;;;;;;5012389;28;20129;-77
2021/12/06 03:11:52;;;;;;;58.50;29.50;;;2.50;99.90;;;;;;5001848;28;20050;-77
2021/12/06 03:14:29;;;;;;;64.30;30.65;;;2.40;99.90;;;;;;4993827;28;20053;-77
2021/12/06 03:16:58;;;;;;;60.85;29.27;;;2.40;99.90;;;;;;4994015;28;20050;-77
2021/12/06 03:19:24;;;;;;;63.95;30.27;;;2.40;99.90;;;;;;4975541;28;20058;-77
2021/12/06 03:21:50;;;;;;;61.60;29.35;;;2.90;99.90;;;;;;4992506;28;20173;-77
2021/12/06 03:24:17;;;;;;;60.85;28.23;;;2.40;99.90;;;;;;4992742;28;20039;-77
2021/12/06 03:26:43;;;;;;;60.90;30.33;;;2.50;99.90;;;;;;4986425;28;20396;-77
2021/12/06 03:29:10;;;;;;;53.85;28.88;;;2.50;99.90;;;;;;5011893;28;20049;-77
2021/12/06 03:31:36;;;;;;;57.72;29.80;;;2.50;99.90;;;;;;4995999;28;20045;-77
2021/12/06 03:34:03;;;;;;;59.35;29.48;;;2.50;99.90;;;;;;5008414;28;20536;-77
2021/12/06 03:36:31;;;;;;;59.78;30.67;;;2.50;99.90;;;;;;4992294;28;20078;-77
2021/12/06 03:38:59;;;;;;;57.55;29.67;;;2.50;99.90;;;;;;4975374;28;20564;-77
2021/12/06 03:41:27;;;;;;;56.17;28.88;;;2.50;99.90;;;;;;5002428;28;20092;-77
2021/12/06 03:43:54;;;;;;;57.25;30.30;;;2.50;99.90;;;;;;5011712;28;20116;-77
2021/12/06 03:46:22;;;;;;;54.65;29.67;;;2.50;99.90;;;;;;5014734;28;20053;-77
2021/12/06 03:48:48;;;;;;;56.78;27.75;;;2.50;99.90;;;;;;5015792;28;20054;-77
2021/12/06 03:51:15;;;;;;;61.50;28.52;;;2.50;99.90;;;;;;4998973;28;20111;-77
2021/12/06 03:53:41;;;;;;;58.22;27.90;;;2.50;99.90;;;;;;4998171;28;20049;-77
2021/12/06 03:56:07;;;;;;;59.97;29.13;;;2.50;99.90;;;;;;5008576;28;20050;-77
2021/12/06 03:58:35;;;;;;;64.05;30.08;;;2.60;99.90;;;;;;4996011;28;20368;-77
2021/12/06 04:01:03;;;;;;;62.38;30.10;;;2.50;99.90;;;;;;4994692;28;20524;-77
2021/12/06 04:03:30;;;;;;;63.97;30.00;;;2.50;99.90;;;;;;4995818;28;20050;-77
2021/12/06 04:05:57;;;;;;;57.13;29.42;;;2.50;99.90;;;;;;4995516;28;20073;-77
2021/12/06 04:08:23;;;;;;;59.97;29.15;;;2.60;99.90;;;;;;4994750;28;20058;-77
2021/12/06 04:10:48;;;;;;;58.70;28.83;;;2.50;99.90;;;;;;4999222;28;20087;-77
2021/12/06 04:13:15;;;;;;;55.03;28.08;;;2.70;99.90;;;;;;4998294;28;20046;-77
2021/12/06 04:15:42;;;;;;;56.20;29.23;;;2.50;99.90;;;;;;5015324;28;20175;-77
2021/12/06 04:18:08;;;;;;;58.00;29.48;;;2.60;99.90;;;;;;5014829;28;20125;-77
2021/12/06 04:20:34;;;;;;;53.67;28.42;;;2.60;99.90;;;;;;5014863;28;20053;-77
2021/12/06 04:23:01;;;;;;;57.63;30.67;;;2.60;99.90;;;;;;5014023;28;20060;-77
2021/12/06 04:25:27;;;;;;;56.72;28.95;;;2.60;99.90;;;;;;5013675;28;20089;-77
2021/12/06 04:27:55;;;;;;;58.20;29.50;;;2.60;99.90;;;;;;4995572;28;20459;-77
2021/12/06 04:30:23;;;;;;;56.97;29.23;;;2.60;99.90;;;;;;4994270;28;20101;-77
2021/12/06 04:32:50;;;;;;;55.55;27.98;;;2.60;99.90;;;;;;5001673;28;20056;-77
2021/12/06 04:35:17;;;;;;;59.20;30.08;;;2.60;99.90;;;;;;5001179;28;20051;-77
2021/12/06 04:37:43;;;;;;;52.70;28.67;;;2.60;99.90;;;;;;4995302;28;20441;-77
2021/12/06 04:40:10;;;;;;;58.53;27.33;;;2.60;99.90;;;;;;4994814;28;20047;-77
2021/12/06 04:42:36;;;;;;;55.33;28.10;;;2.60;99.90;;;;;;5012499;28;20137;-77
2021/12/06 04:45:03;;;;;;;54.25;27.27;;;2.80;99.90;;;;;;5014215;28;20141;-77
2021/12/06 04:47:30;;;;;;;53.78;27.85;;;2.60;99.90;;;;;;5014373;28;20481;-77
2021/12/06 04:49:55;;;;;;;52.75;26.85;;;2.60;99.90;;;;;;5014831;28;20050;-77
2021/12/06 04:52:21;;;;;;;52.22;28.08;;;2.60;99.90;;;;;;5015372;28;20042;-77
2021/12/06 04:54:53;;;;;;;52.55;26.80;;;2.70;99.90;;;;;;5015613;28;20424;-77
2021/12/06 04:57:37;;;;;;;49.08;25.00;;;2.70;99.90;;;;;;5009704;28;20054;-77
2021/12/06 05:00:15;;;;;;;53.58;28.17;;;2.60;99.90;;;;;;5014381;28;20045;-77
2021/12/06 05:02:41;;;;;;;52.25;26.52;;;2.60;99.90;;;;;;5014159;28;20111;-77
2021/12/06 05:05:18;;;;;;;47.65;26.00;;;2.60;99.90;;;;;;4997001;28;20061;-77
2021/12/06 05:07:50;;;;;;;48.55;26.83;;;2.80;99.90;;;;;;4997819;28;20504;-77
2021/12/06 05:10:17;;;;;;;48.38;26.40;;;2.80;99.90;;;;;;5013769;28;20104;-77
2021/12/06 05:12:44;;;;;;;51.90;26.80;;;2.60;99.90;;;;;;4996098;28;20481;-77
2021/12/06 05:15:11;;;;;;;52.10;26.20;;;2.60;99.90;;;;;;4997530;28;20100;-77
2021/12/06 05:17:37;;;;;;;51.85;25.83;;;2.70;99.90;;;;;;5013079;28;20053;-77
2021/12/06 05:20:05;;;;;;;56.45;28.60;;;2.60;99.90;;;;;;5015066;28;20050;-77
2021/12/06 05:22:31;;;;;;;51.28;27.20;;;2.60;99.90;;;;;;5013577;28;20058;-77
2021/12/06 05:24:57;;;;;;;56.00;27.65;;;2.60;99.90;;;;;;5013122;28;20104;-77
2021/12/06 05:27:28;;;;;;;54.63;28.45;;;2.60;99.90;;;;;;4996680;28;20516;-77
2021/12/06 05:29:58;;;;;;;57.58;29.10;;;2.60;99.90;;;;;;4994092;28;20101;-77
2021/12/06 05:32:26;;;;;;;55.63;28.25;;;2.60;99.90;;;;;;4996672;28;20085;-77
2021/12/06 05:35:01;;;;;;;63.45;28.70;;;2.60;99.90;;;;;;5014783;28;20124;-77
2021/12/06 05:37:26;;;;;;;;;;;2.60;99.90;;;;;;5014180;28;20124;-78
2021/12/06 05:39:53;;;;;;;53.42;26.52;;;2.60;99.90;;;;;;5012742;28;20052;-77
2021/12/06 05:42:19;;;;;;;55.13;26.00;;;2.60;99.90;;;;;;4997085;28;20136;-77
2021/12/06 05:44:45;;;;;;;64.15;29.13;;;2.60;99.90;;;;;;4993549;28;20086;-77
2021/12/06 05:47:11;;;;;;;57.25;28.77;;;2.60;99.90;;;;;;4992748;28;20058;-77
2021/12/06 05:49:37;;;;;;;58.50;28.92;;;2.60;99.90;;;;;;4978356;28;20129;-77
2021/12/06 05:52:04;;;;;;;62.70;29.25;;;2.60;99.90;;;;;;4977493;28;20042;-77
2021/12/06 05:54:30;;;;;;;62.17;27.95;;;2.60;99.90;;;;;;4992754;28;20057;-77
2021/12/06 05:56:57;;;;;;;60.15;28.75;;;2.60;99.90;;;;;;4998553;28;20034;-77
2021/12/06 05:59:23;;;;;;;63.95;30.00;;;2.60;99.90;;;;;;4993806;28;20050;-77
2021/12/06 06:01:50;;;;;;;61.72;29.92;;;2.60;99.90;;;;;;4992987;28;20050;-78
2021/12/06 06:04:16;;;;;;;68.47;31.65;;;2.80;99.90;;;;;;4993492;28;20054;-77
2021/12/06 06:06:42;;;;;;;66.25;31.50;;;2.60;99.90;;;;;;4992512;28;20053;-78
2021/12/06 06:09:08;;;;;;;65.60;29.77;;;2.60;99.90;;;;;;4992640;28;20047;-77
2021/12/06 06:11:34;;;;;;;62.30;30.50;;;2.70;99.90;;;;;;5002926;28;20104;-77
2021/12/06 06:14:02;;;;;;;61.30;30.23;;;2.60;99.90;;;;;;5012252;28;20444;-77
2021/12/06 06:16:32;;;;;;;64.03;29.58;;;2.60;99.90;;;;;;5012879;28;20045;-77
2021/12/06 06:18:58;;;;;;;59.10;27.25;;;2.60;99.90;;;;;;5011021;28;20497;-79
2021/12/06 06:21:24;;;;;;;64.90;29.30;;;2.60;99.90;;;;;;4976031;28;20107;-78
2021/12/06 06:23:50;;;;;;;76.07;30.70;;;2.60;99.90;;;;;;4977220;28;20124;-78
2021/12/06 06:26:16;;;;;;;67.97;31.83;;;2.60;99.90;;;;;;4997821;28;20038;-77
2021/12/06 06:28:42;;;;;;;82.30;33.45;;;2.60;99.90;;;;;;4992207;28;20401;-76
2021/12/06 06:31:08;;;;;;;71.35;33.33;;;2.60;99.90;;;;;;4994330;28;20034;-77
2021/12/06 06:33:34;;;;;;;73.63;32.38;;;2.60;99.90;;;;;;5006812;28;20379;-77
2021/12/06 06:35:59;;;;;;;74.93;32.17;;;2.60;99.90;;;;;;5011721;28;20050;-77
2021/12/06 06:38:25;;;;;;;72.97;30.65;;;2.60;99.90;;;;;;5012594;28;20076;-77
2021/12/06 06:40:51;;;;;;;73.25;33.80;;;2.60;99.90;;;;;;4991898;28;20133;-77
2021/12/06 06:43:18;;;;;;;68.07;31.58;;;2.60;99.90;;;;;;4975756;28;20486;-77
2021/12/06 06:45:44;;;;;;;70.35;32.00;;;2.60;99.90;;;;;;4992947;28;20056;-77
2021/12/06 06:48:10;;;;;;;72.05;30.83;;;2.70;99.90;;;;;;4992808;28;20058;-77
2021/12/06 06:50:36;;;;;;;76.25;32.65;;;2.80;99.90;;;;;;4992292;28;20042;-78
2021/12/06 06:53:02;;;;;;;73.47;32.03;;;2.70;99.90;;;;;;4994113;28;20086;-78
2021/12/06 06:55:28;;;;;;;75.45;33.20;;;2.70;99.90;;;;;;4995008;28;20129;-78
2021/12/06 06:57:54;;;;;;;81.43;32.92;;;2.70;99.90;;;;;;4994875;28;20050;-78
2021/12/06 07:00:29;;;;;;;70.53;32.45;;;2.70;99.90;;;;;;4992782;28;20516;-78
2021/12/06 07:02:56;;;;;;;64.32;30.35;;;2.70;99.90;;;;;;4991974;28;20058;-78
2021/12/06 07:05:22;;;;;;;68.95;28.95;;;2.70;99.90;;;;;;4992892;28;20442;-78
2021/12/06 07:07:48;;;;;;;64.00;28.73;;;2.70;99.90;;;;;;4992750;28;20086;-77
2021/12/06 07:10:14;;;;;;;66.05;30.83;;;2.70;99.90;;;;;;4992183;28;20499;-78
2021/12/06 07:12:48;;;;;;;72.90;31.17;;;2.70;99.90;;;;;;5010936;28;20471;-77
2021/12/06 07:15:23;;;;;;;68.30;29.88;;;2.70;99.90;;;;;;5012148;28;20053;-77
2021/12/06 07:17:51;;;;;;;80.32;32.30;;;2.70;99.90;;;;;;5011338;28;20052;-77
2021/12/06 07:20:18;;;;;;;60.65;27.75;;;2.70;99.90;;;;;;5014084;28;20089;-78
2021/12/06 07:22:45;;;;;;;68.47;30.60;;;2.70;99.90;;;;;;5016249;28;20037;-79
2021/12/06 07:25:15;;;;;;;80.30;31.20;;;2.70;99.90;;;;;;5014948;28;20128;-78
2021/12/06 07:27:42;;;;;;;72.90;31.98;;;2.70;99.90;;;;;;5017663;28;20088;-79
2021/12/06 07:30:09;;;;;;;67.20;28.92;;;2.70;99.90;;;;;;5015846;28;20547;-79
2021/12/06 07:32:36;;;;;;;85.10;32.78;;;2.70;99.90;;;;;;5011532;28;20176;-79
2021/12/06 07:35:03;;;;;;;80.70;29.23;;;2.80;99.90;;;;;;5003282;28;20196;-78
2021/12/06 07:37:29;;;;;;;62.55;29.50;;;2.70;99.90;;;;;;5015773;28;20049;-77
2021/12/06 07:39:55;;;;;;;68.53;29.42;;;2.80;99.90;;;;;;5014969;28;20401;-77
2021/12/06 07:42:21;;;;;;;71.78;29.92;;;2.70;99.90;;;;;;4997327;28;20045;-77
2021/12/06 07:44:47;;;;;;;70.07;29.35;;;2.70;99.90;;;;;;4995707;28;20058;-77
2021/12/06 07:47:13;;;;;;;76.38;31.85;;;2.70;99.90;;;;;;4995479;28;20367;-77
2021/12/06 07:49:40;;;;;;;71.15;31.15;;;2.80;99.90;;;;;;4995844;28;20069;-77
2021/12/06 07:52:06;;;;;;;67.30;30.25;;;2.70;99.90;;;;;;4979423;28;20085;-77
2021/12/06 07:54:33;;;;;;;73.93;30.85;;;2.80;99.90;;;;;;4995337;28;20101;-77
2021/12/06 07:56:59;;;;;;;76.78;31.90;;;2.70;99.90;;;;;;5008569;28;20493;-77
2021/12/06 07:59:25;;;;;;;78.35;32.03;;;2.80;99.90;;;;;;5014446;28;20053;-77
2021/12/06 08:01:51;;;;;;;84.07;33.47;;;2.80;99.90;;;;;;5015089;28;20050;-77
2021/12/06 08:04:17;;;;;;;73.13;31.77;;;2.80;99.90;;;;;;4998711;28;20053;-77
2021/12/06 08:06:43;;;;;;;75.70;31.02;;;2.80;99.90;;;;;;5015668;28;20100;-77
2021/12/06 08:09:09;;;;;;;82.43;32.38;;;2.80;99.90;;;;;;5015228;28;20088;-77
2021/12/06 08:11:35;;;;;;;78.95;31.13;;;2.80;99.90;;;;;;5012311;28;20537;-77
2021/12/06 08:14:02;;;;;;;73.30;30.70;;;2.80;99.90;;;;;;5015236;28;20121;-77
2021/12/06 08:16:42;;;;;;;65.85;30.33;;;2.80;99.90;;;;;;5011195;28;20050;-77
2021/12/06 08:19:09;;;;;;;75.57;31.05;;;2.90;99.90;;;;;;4998676;28;20077;-77
2021/12/06 08:21:35;;;;;;;76.70;34.22;;;2.90;99.90;;;;;;5012933;28;20116;-77
2021/12/06 08:24:02;;;;;;;79.93;32.85;;;2.90;99.90;;;;;;5013990;28;20041;-77
2021/12/06 08:26:33;;;;;;;79.13;32.65;;;2.80;99.90;;;;;;5005809;28;20125;-77
2021/12/06 08:29:02;;;;;;;75.80;32.45;;;2.90;99.90;;;;;;4994529;28;20389;-77
2021/12/06 08:31:29;;;;;;;75.95;32.80;;;2.90;99.90;;;;;;4995217;28;20042;-77
2021/12/06 08:33:56;;;;;;;80.57;31.27;;;2.90;99.90;;;;;;5005924;28;20050;-77
2021/12/06 08:36:24;;;;;;;78.15;32.28;;;2.90;99.90;;;;;;4994073;28;20042;-77
2021/12/06 08:38:50;;;;;;;74.38;32.95;;;2.90;99.90;;;;;;4986249;28;20042;-77
2021/12/06 08:41:19;;;;;;;82.25;33.17;;;2.90;99.90;;;;;;5007476;28;20077;-77
2021/12/06 08:43:48;;;;;;;94.93;34.67;;;2.90;99.90;;;;;;4993929;28;20080;-78
2021/12/06 08:46:21;;;;;;;78.90;33.08;;;2.90;99.90;;;;;;4994992;28;20042;-77
2021/12/06 08:48:48;;;;;;;87.00;31.55;;;2.90;99.90;;;;;;4993744;28;20050;-78
2021/12/06 08:51:21;;;;;;;76.63;31.10;;;3.00;99.90;;;;;;4994852;28;20050;-77
2021/12/06 08:53:49;;;;;;;84.15;35.33;;;3.00;99.90;;;;;;5000471;28;20048;-77
2021/12/06 08:56:15;;;;;;;82.07;32.53;;;3.00;99.90;;;;;;5005784;28;20046;-77
2021/12/06 08:58:42;;;;;;;79.07;31.17;;;3.00;99.90;;;;;;4995945;28;20038;-78
2021/12/06 09:01:09;;;;;;;82.70;31.95;;;3.00;99.90;;;;;;4994666;28;20042;-77
2021/12/06 09:03:36;;;;;;;83.45;31.88;;;3.00;99.90;;;;;;4993469;28;20508;-78
2021/12/06 09:06:06;;;;;;;86.72;31.58;;;3.00;99.90;;;;;;4994333;28;20050;-78
2021/12/06 09:08:33;;;;;;;78.78;33.03;;;3.00;99.90;;;;;;4994340;28;20050;-78
2021/12/06 09:10:59;;;;;;;76.68;30.05;;;3.10;99.90;;;;;;4998074;28;20493;-78
2021/12/06 09:13:28;;;;;;;70.35;29.25;;;3.10;99.90;;;;;;5013552;28;20050;-77
2021/12/06 09:15:55;;;;;;;67.22;29.13;;;3.10;99.90;;;;;;5014389;28;20132;-77
2021/12/06 09:18:21;;;;;;;62.20;27.00;;;3.10;99.90;;;;;;5019338;28;20077;-78
2021/12/06 09:20:49;;;;;;;64.43;28.15;;;3.20;99.90;;;;;;5024524;28;20049;-77
2021/12/06 09:23:16;;;;;;;63.47;27.20;;;3.20;99.90;;;;;;5013575;28;20050;-77
2021/12/06 09:25:44;;;;;;;55.50;27.15;;;3.20;99.90;;;;;;5012533;28;20096;-77
2021/12/06 09:28:12;;;;;;;60.28;27.65;;;3.20;99.90;;;;;;5013673;28;20088;-78
2021/12/06 09:30:39;;;;;;;62.22;27.00;;;3.20;99.90;;;;;;5012858;28;20057;-78
2021/12/06 09:33:22;;;;;;;60.17;27.45;;;3.20;99.90;;;;;;5014637;28;20046;-78
2021/12/06 09:35:54;;;;;;;53.22;25.23;;;3.20;99.90;;;;;;4997896;28;20077;-78
2021/12/06 09:38:22;;;;;;;60.45;26.50;;;3.20;99.90;;;;;;4993093;28;20054;-77
2021/12/06 09:40:51;;;;;;;55.40;25.33;;;3.20;99.90;;;;;;4994107;28;20086;-78
2021/12/06 09:43:17;;;;;;;54.25;24.92;;;3.20;99.90;;;;;;4993024;28;20116;-79
2021/12/06 09:45:44;;;;;;;58.50;27.33;;;3.30;99.90;;;;;;5013975;28;20435;-78
2021/12/06 09:48:15;;;;;;;59.60;27.02;;;3.30;99.90;;;;;;4996740;28;20049;-77
2021/12/06 09:50:58;;;;;;;59.30;26.02;;;3.30;99.90;;;;;;5014358;28;20057;-77
2021/12/06 09:53:28;;;;;;;59.00;26.30;;;3.30;99.90;;;;;;5012150;28;20042;-77
2021/12/06 09:55:56;;;;;;;55.63;25.23;;;3.30;99.90;;;;;;4990322;28;20081;-78
2021/12/06 09:58:23;;;;;;;55.47;25.48;;;3.30;99.90;;;;;;4993412;28;20077;-77
2021/12/06 10:00:53;;;;;;;61.78;26.15;;;3.30;99.90;;;;;;4993724;28;20078;-78
2021/12/06 10:03:24;;;;;;;61.15;27.63;;;3.30;99.90;;;;;;4994524;28;20073;-78
2021/12/06 10:05:50;;;;;;;56.05;27.30;;;3.30;99.90;;;;;;4997296;28;20045;-77
2021/12/06 10:08:16;;;;;;;61.58;28.77;;;3.30;99.90;;;;;;5013979;28;20042;-78
2021/12/06 10:10:44;;;;;;;61.88;26.38;;;3.30;99.90;;;;;;5011356;28;20045;-77
2021/12/06 10:13:10;;;;;;;64.20;26.83;;;3.30;99.90;;;;;;4976017;28;20058;-78
2021/12/06 10:15:36;;;;;;;62.35;27.83;;;3.20;99.90;;;;;;4993076;28;20042;-77
2021/12/06 10:18:04;;;;;;;68.88;31.35;;;3.20;99.90;;;;;;4994145;28;20049;-77
2021/12/06 10:20:31;;;;;;;60.58;29.65;;;3.20;99.90;;;;;;4992384;28;20042;-78
2021/12/06 10:22:59;;;;;;;57.10;28.27;;;3.20;99.90;;;;;;4992862;28;20508;-77
2021/12/06 10:25:38;;;;;;;68.88;29.05;;;3.30;99.90;;;;;;4993115;28;20038;-78
2021/12/06 10:28:05;;;;;;;57.60;28.63;;;3.30;99.90;;;;;;5011967;28;20049;-77
2021/12/06 10:30:38;;;;;;;56.83;27.95;;;3.30;99.90;;;;;;5013642;28;20198;-78
2021/12/06 10:33:12;;;;;;;55.35;26.27;;;3.30;99.90;;;;;;5012227;28;20061;-77
2021/12/06 10:35:44;;;;;;;54.97;26.92;;;3.40;99.90;;;;;;4996192;28;20498;-78
2021/12/06 10:38:11;;;;;;;53.42;26.35;;;3.30;99.90;;;;;;4994072;28;20053;-78
2021/12/06 10:40:40;;;;;;;89.32;29.00;;;3.30;99.90;;;;;;4994855;28;20100;-77
2021/12/06 10:43:10;;;;;;;52.17;26.48;;;3.30;99.90;;;;;;5011107;28;20383;-77
2021/12/06 10:45:42;;;;;;;56.63;28.13;;;3.30;99.90;;;;;;5008197;28;20054;-77
2021/12/06 10:48:23;;;;;;;53.22;27.88;;;3.30;99.90;;;;;;4992218;28;20050;-77
2021/12/06 10:50:52;;;;;;;53.90;28.30;;;3.50;99.90;;;;;;4976523;28;20109;-77
2021/12/06 10:53:20;;;;;;;58.47;31.38;;;3.30;99.90;;;;;;4976396;28;20420;-77
2021/12/06 10:55:49;;;;;;;50.10;26.45;;;3.30;99.90;;;;;;4999327;28;20121;-77
2021/12/06 10:58:18;;;;;;;59.28;29.48;;;3.30;99.90;;;;;;5016457;28;20493;-77
2021/12/06 11:00:53;;;;;;;56.55;27.45;;;3.40;99.90;;;;;;5017375;28;20042;-77
2021/12/06 11:03:24;;;;;;;51.88;27.88;;;3.40;99.90;;;;;;5016536;28;20551;-78
2021/12/06 11:05:59;;;;;;;51.95;27.05;;;3.40;99.90;;;;;;5004900;28;20038;-77
2021/12/06 11:08:25;;;;;;;48.95;24.95;;;3.40;99.90;;;;;;5016334;28;20057;-77
2021/12/06 11:11:01;;;;;;;44.60;23.30;;;3.40;99.90;;;;;;5011235;28;20065;-77
2021/12/06 11:13:34;;;;;;;46.17;23.83;;;3.40;99.90;;;;;;4996331;28;20433;-77
2021/12/06 11:16:22;;;;;;;41.97;23.08;;;3.50;99.90;;;;;;4983611;28;20379;-77
2021/12/06 11:18:58;;;;;;;44.25;22.17;;;3.50;99.90;;;;;;5014674;28;20519;-77
2021/12/06 11:21:31;;;;;;;41.35;22.90;;;3.50;99.90;;;;;;4996149;28;20050;-79
2021/12/06 11:24:10;;;;;;;43.58;22.30;;;3.50;99.90;;;;;;4996724;28;20121;-78
2021/12/06 11:26:44;;;;;;;42.03;21.83;;;3.60;99.90;;;;;;5005722;28;20076;-78
2021/12/06 11:29:35;;;;;;;41.67;20.93;;;3.60;99.90;;;;;;5015833;28;20120;-78
2021/12/06 11:32:23;;;;;;;39.92;22.02;;;3.60;99.90;;;;;;5004586;28;20112;-79
2021/12/06 11:34:55;;;;;;;35.92;20.63;;;3.70;99.90;;;;;;5015466;28;20045;-78
2021/12/06 11:37:35;;;;;;;35.70;19.08;;;3.70;99.90;;;;;;5014858;28;20473;-78
2021/12/06 11:40:17;;;;;;;36.47;20.83;;;3.80;99.90;;;;;;5015436;28;20052;-78
2021/12/06 11:43:06;;;;;;;37.08;20.55;;;3.70;99.90;;;;;;5013501;28;20046;-78
2021/12/06 11:45:58;;;;;;;32.90;19.85;;;3.60;99.90;;;;;;4998056;28;20057;-77
2021/12/06 11:48:31;;;;;;;38.03;20.35;;;3.60;99.90;;;;;;5012004;28;20057;-78
2021/12/06 11:50:59;;;;;;;37.95;21.85;;;3.60;99.90;;;;;;5014391;28;20061;-78
2021/12/06 11:53:28;;;;;;;37.28;19.10;;;3.60;99.90;;;;;;5014379;28;20397;-78
2021/12/06 11:56:11;;;;;;;40.72;22.42;;;3.50;99.90;;;;;;5009358;28;20047;-77
2021/12/06 11:58:46;;;;;;;44.95;22.33;;;3.50;99.90;;;;;;4994806;28;20070;-77
2021/12/06 12:01:15;;;;;;;;;;;3.50;99.90;;;;;;4997173;28;20098;-78
2021/12/06 12:03:44;;;;;;;47.15;23.60;;;3.50;99.90;;;;;;4995341;28;20379;-77
2021/12/06 12:06:26;;;;;;;50.25;22.73;;;3.50;99.90;;;;;;4983357;28;20107;-78
2021/12/06 12:09:12;;;;;;;54.10;25.25;;;3.50;99.90;;;;;;5015678;28;20041;-78
2021/12/06 12:12:05;;;;;;;52.55;25.67;;;3.50;99.90;;;;;;5004604;28;20540;-78
2021/12/06 12:14:36;;;;;;;53.90;26.50;;;3.50;99.90;;;;;;4978389;28;20056;-78
2021/12/06 12:17:07;;;;;;;58.40;28.35;;;3.50;99.90;;;;;;4995555;28;20100;-78
2021/12/06 12:19:34;;;;;;;57.33;25.52;;;3.50;99.90;;;;;;5000640;28;20053;-78
2021/12/06 12:22:00;;;;;;;58.08;27.08;;;3.50;99.90;;;;;;5014579;28;20054;-78
2021/12/06 12:24:26;;;;;;;62.13;29.27;;;3.60;99.90;;;;;;5015804;28;20046;-78
2021/12/06 12:27:01;;;;;;;62.63;27.20;;;3.60;99.90;;;;;;5002896;28;20042;-78
2021/12/06 12:29:28;;;;;;;64.85;29.00;;;3.60;99.90;;;;;;4995008;28;20050;-78
2021/12/06 12:32:01;;;;;;;64.00;27.75;;;3.60;99.90;;;;;;4995902;28;20403;-78
2021/12/06 12:34:30;;;;;;;66.47;29.73;;;3.80;99.90;;;;;;4994077;28;20117;-78
2021/12/06 12:36:57;;;;;;;66.70;28.60;;;3.70;99.90;;;;;;4995048;28;20061;-78
2021/12/06 12:39:25;;;;;;;66.30;30.15;;;3.70;99.90;;;;;;5004626;28;20046;-78
2021/12/06 12:42:05;;;;;;;64.43;27.38;;;3.70;99.90;;;;;;5002613;28;20393;-78
2021/12/06 12:44:49;;;;;;;62.17;28.45;;;3.70;99.90;;;;;;5008938;28;20054;-79
2021/12/06 12:47:21;;;;;;;59.78;27.60;;;3.70;99.90;;;;;;5015444;28;20078;-78
2021/12/06 12:49:50;;;;;;;62.67;28.02;;;3.70;99.90;;;;;;5013442;28;20511;-79
2021/12/06 12:52:39;;;;;;;54.15;26.05;;;3.70;99.90;;;;;;5014173;28;20053;-78
2021/12/06 12:55:22;;;;;;;63.22;29.30;;;3.70;99.90;;;;;;4997208;28;20482;-78
2021/12/06 12:57:48;;;;;;;60.58;28.55;;;3.70;99.90;;;;;;5021340;28;20145;-78
2021/12/06 13:00:26;;;;;;;65.10;29.67;;;3.70;99.90;;;;;;4978159;28;20050;-78
2021/12/06 13:02:53;;;;;;;60.17;28.80;;;3.70;99.90;;;;;;5010328;28;20057;-78
2021/12/06 13:05:27;;;;;;;63.22;30.27;;;3.70;99.90;;;;;;5017173;28;20077;-78